Lobo

Jump to table bottom
Date/Time Temp deg F RH % 24 Hr Snow (in) Snow Depth (in) SWE (in)
03/28 17:00 29.4 55 -0.2 46.2 0.00
03/28 16:00 31.1 53 0.1 46.3 0.00
03/28 15:00 30.7 48 0.3 46.5 0.00
03/28 14:00 29.2 49 0.7 46.6 0.00
03/28 13:00 27.1 64 1.4 47.5 0.00
03/28 12:00 28.4 63 2.3 48.8 0.00
03/28 11:00 21.9 71 2.4 48.9 0.00
03/28 10:00 20.4 74 2.5 49.0 0.00
03/28 09:00 17.3 81 2.6 49.3 0.00
03/28 08:00 15.9 82 2.4 48.9 0.00
03/28 07:00 16.9 87 2.5 49.2 0.00
03/28 06:00 17.4 88 2.6 49.4 0.00
03/28 05:00 17.6 85 2.6 49.6 0.00
03/28 04:00 17.8 86 2.6 49.5 0.00
03/28 03:00 19.1 81 2.6 49.5 0.00
03/28 02:00 20.5 82 2.6 49.6 0.00
03/28 01:00 21.4 83 2.6 49.6 0.00
03/28 00:00 21.8 89 2.6 49.5 0.00
03/27 23:00 21.6 92 2.5 49.0 0.01
03/27 22:00 22.2 95 2.5 49.9 0.09
03/27 21:00 23.6 95 1.1 47.5 0.11
03/27 20:00 25.8 89 0.0 45.6 0.03
03/27 19:00 28.6 75 -0.0 46.2 0.00
03/27 18:00 30.2 67 -0.0 46.2 0.00
03/27 17:00 30.3 67 -0.0 46.2 0.00
03/27 16:00 30.5 67 -0.1 46.2 0.01
03/27 15:00 28.5 84 -0.2 45.7 0.00
03/27 14:00 30.8 67 0.8 46.0 0.00
03/27 13:00 30.2 65 0.9 45.9 0.00
03/27 12:00 29.4 68 0.8 45.8 0.00
03/27 11:00 29.4 67 0.9 46.5 0.00
03/27 10:00 27.5 84 0.7 47.5 0.00
03/27 09:00 25.9 87 1.3 47.7 0.00
03/27 08:00 23.0 86 1.3 46.5 0.00
03/27 07:00 23.4 93 1.0 47.0 0.00
03/27 06:00 23.6 93 1.0 47.1 0.00
03/27 05:00 23.9 91 0.9 47.6 0.00
03/27 04:00 23.9 90 1.0 46.9 0.00
03/27 03:00 24.0 90 1.0 47.2 0.00
03/27 02:00 24.1 94 0.8 46.1 0.01
03/27 01:00 23.1 96 0.7 46.0 0.00
03/27 00:00 23.0 97 0.7 45.7 0.01
.